sensor_id;sensor_type;location;lat;lon;timestamp;temperature;humidity
76509;SHT31;65340;51.966;5.652;2023-04-03T00:01:48;15.4;41.4
76509;SHT31;65340;51.966;5.652;2023-04-03T00:04:18;15.4;41.4
76509;SHT31;65340;51.966;5.652;2023-04-03T00:06:48;15.4;41.4
76509;SHT31;65340;51.966;5.652;2023-04-03T00:09:17;15.4;41.3
76509;SHT31;65340;51.966;5.652;2023-04-03T00:11:47;15.3;41.3
76509;SHT31;65340;51.966;5.652;2023-04-03T00:14:17;15.3;41.3
76509;SHT31;65340;51.966;5.652;2023-04-03T00:16:47;15.3;41.3
76509;SHT31;65340;51.966;5.652;2023-04-03T00:19:16;15.3;41.2
76509;SHT31;65340;51.966;5.652;2023-04-03T00:21:47;15.3;41.3
76509;SHT31;65340;51.966;5.652;2023-04-03T00:24:17;15.3;41.2
76509;SHT31;65340;51.966;5.652;2023-04-03T00:26:47;15.3;41.2
76509;SHT31;65340;51.966;5.652;2023-04-03T00:29:17;15.3;41.1
76509;SHT31;65340;51.966;5.652;2023-04-03T00:31:47;15.3;41.1
76509;SHT31;65340;51.966;5.652;2023-04-03T00:34:19;15.3;41.1
76509;SHT31;65340;51.966;5.652;2023-04-03T00:36:49;15.3;41.0
76509;SHT31;65340;51.966;5.652;2023-04-03T00:39:18;15.3;41.2
76509;SHT31;65340;51.966;5.652;2023-04-03T00:41:50;15.3;41.0
76509;SHT31;65340;51.966;5.652;2023-04-03T00:47:17;15.2;41.1
76509;SHT31;65340;51.966;5.652;2023-04-03T00:49:51;15.2;41.1
76509;SHT31;65340;51.966;5.652;2023-04-03T00:52:26;15.2;41.1
76509;SHT31;65340;51.966;5.652;2023-04-03T00:55:04;15.2;41.0
76509;SHT31;65340;51.966;5.652;2023-04-03T00:57:36;15.2;41.1
76509;SHT31;65340;51.966;5.652;2023-04-03T01:00:10;15.2;41.1
76509;SHT31;65340;51.966;5.652;2023-04-03T01:02:42;15.2;41.0
76509;SHT31;65340;51.966;5.652;2023-04-03T01:05:13;15.2;41.0
76509;SHT31;65340;51.966;5.652;2023-04-03T01:07:45;15.2;41.1
76509;SHT31;65340;51.966;5.652;2023-04-03T01:10:17;15.2;41.1
76509;SHT31;65340;51.966;5.652;2023-04-03T01:12:50;15.2;41.1
76509;SHT31;65340;51.966;5.652;2023-04-03T01:15:23;15.2;41.1
76509;SHT31;65340;51.966;5.652;2023-04-03T01:17:56;15.2;41.1
76509;SHT31;65340;51.966;5.652;2023-04-03T01:22:04;15.2;41.1
76509;SHT31;65340;51.966;5.652;2023-04-03T01:24:37;15.2;41.1
76509;SHT31;65340;51.966;5.652;2023-04-03T01:27:10;15.2;41.1
76509;SHT31;65340;51.966;5.652;2023-04-03T01:29:44;15.2;41.2
76509;SHT31;65340;51.966;5.652;2023-04-03T01:32:15;15.2;41.0
76509;SHT31;65340;51.966;5.652;2023-04-03T01:34:46;15.2;41.1
76509;SHT31;65340;51.966;5.652;2023-04-03T01:37:15;15.2;41.1
76509;SHT31;65340;51.966;5.652;2023-04-03T01:39:45;15.1;41.0
76509;SHT31;65340;51.966;5.652;2023-04-03T01:42:15;15.1;41.1
76509;SHT31;65340;51.966;5.652;2023-04-03T01:44:45;15.1;41.2
76509;SHT31;65340;51.966;5.652;2023-04-03T01:47:15;15.1;41.1
76509;SHT31;65340;51.966;5.652;2023-04-03T01:49:44;15.1;41.2
76509;SHT31;65340;51.966;5.652;2023-04-03T01:52:14;15.1;41.1
76509;SHT31;65340;51.966;5.652;2023-04-03T01:54:44;15.1;41.1
76509;SHT31;65340;51.966;5.652;2023-04-03T01:57:13;15.1;41.1
76509;SHT31;65340;51.966;5.652;2023-04-03T01:59:44;15.1;41.2
76509;SHT31;65340;51.966;5.652;2023-04-03T02:02:13;15.1;41.1
76509;SHT31;65340;51.966;5.652;2023-04-03T02:04:44;15.1;41.1
76509;SHT31;65340;51.966;5.652;2023-04-03T02:07:13;15.1;41.1
76509;SHT31;65340;51.966;5.652;2023-04-03T02:09:43;15.1;41.1
76509;SHT31;65340;51.966;5.652;2023-04-03T02:12:13;15.1;41.1
76509;SHT31;65340;51.966;5.652;2023-04-03T02:14:43;15.1;41.1
76509;SHT31;65340;51.966;5.652;2023-04-03T02:17:13;15.1;41.2
76509;SHT31;65340;51.966;5.652;2023-04-03T02:19:42;15.1;41.1
76509;SHT31;65340;51.966;5.652;2023-04-03T02:22:12;15.0;41.1
76509;SHT31;65340;51.966;5.652;2023-04-03T02:24:42;15.0;41.1
76509;SHT31;65340;51.966;5.652;2023-04-03T02:27:13;15.0;41.1
76509;SHT31;65340;51.966;5.652;2023-04-03T02:29:43;15.0;41.2
76509;SHT31;65340;51.966;5.652;2023-04-03T02:32:13;15.0;41.1
76509;SHT31;65340;51.966;5.652;2023-04-03T02:34:43;15.0;41.2
76509;SHT31;65340;51.966;5.652;2023-04-03T02:37:13;15.0;41.2
76509;SHT31;65340;51.966;5.652;2023-04-03T02:39:42;15.0;41.3
76509;SHT31;65340;51.966;5.652;2023-04-03T02:42:12;15.0;41.2
76509;SHT31;65340;51.966;5.652;2023-04-03T02:44:43;15.0;41.2
76509;SHT31;65340;51.966;5.652;2023-04-03T02:47:12;15.0;41.3
76509;SHT31;65340;51.966;5.652;2023-04-03T02:49:42;15.0;41.3
76509;SHT31;65340;51.966;5.652;2023-04-03T02:52:13;15.0;41.3
76509;SHT31;65340;51.966;5.652;2023-04-03T02:54:43;15.0;41.3
76509;SHT31;65340;51.966;5.652;2023-04-03T02:57:13;15.0;41.3
76509;SHT31;65340;51.966;5.652;2023-04-03T02:59:43;15.0;41.3
76509;SHT31;65340;51.966;5.652;2023-04-03T03:02:13;15.0;41.4
76509;SHT31;65340;51.966;5.652;2023-04-03T03:04:44;15.0;41.3
76509;SHT31;65340;51.966;5.652;2023-04-03T03:07:14;15.0;41.4
76509;SHT31;65340;51.966;5.652;2023-04-03T03:09:44;15.0;41.5
76509;SHT31;65340;51.966;5.652;2023-04-03T03:12:13;15.0;41.4
76509;SHT31;65340;51.966;5.652;2023-04-03T03:14:48;15.0;41.4
76509;SHT31;65340;51.966;5.652;2023-04-03T03:17:18;15.0;41.5
76509;SHT31;65340;51.966;5.652;2023-04-03T03:19:48;15.0;41.4
76509;SHT31;65340;51.966;5.652;2023-04-03T03:22:18;14.9;41.5
76509;SHT31;65340;51.966;5.652;2023-04-03T03:24:48;14.9;41.4
76509;SHT31;65340;51.966;5.652;2023-04-03T03:27:18;14.9;41.5
76509;SHT31;65340;51.966;5.652;2023-04-03T03:29:48;14.9;41.5
76509;SHT31;65340;51.966;5.652;2023-04-03T03:32:18;14.9;41.5
76509;SHT31;65340;51.966;5.652;2023-04-03T03:34:48;14.9;41.6
76509;SHT31;65340;51.966;5.652;2023-04-03T03:37:18;14.9;41.5
76509;SHT31;65340;51.966;5.652;2023-04-03T03:39:48;14.9;41.5
76509;SHT31;65340;51.966;5.652;2023-04-03T03:42:17;14.9;41.5
76509;SHT31;65340;51.966;5.652;2023-04-03T03:44:47;14.9;41.5
76509;SHT31;65340;51.966;5.652;2023-04-03T03:47:17;14.9;41.6
76509;SHT31;65340;51.966;5.652;2023-04-03T03:49:46;14.9;41.5
76509;SHT31;65340;51.966;5.652;2023-04-03T03:52:16;14.9;41.5
76509;SHT31;65340;51.966;5.652;2023-04-03T03:54:46;14.9;41.5
76509;SHT31;65340;51.966;5.652;2023-04-03T03:57:16;14.9;41.5
76509;SHT31;65340;51.966;5.652;2023-04-03T03:59:47;14.9;41.6
76509;SHT31;65340;51.966;5.652;2023-04-03T04:02:19;14.9;41.6
76509;SHT31;65340;51.966;5.652;2023-04-03T04:04:49;14.9;41.5
76509;SHT31;65340;51.966;5.652;2023-04-03T04:07:20;14.9;41.5
76509;SHT31;65340;51.966;5.652;2023-04-03T04:09:52;14.9;41.5
76509;SHT31;65340;51.966;5.652;2023-04-03T04:12:22;14.9;41.6
76509;SHT31;65340;51.966;5.652;2023-04-03T04:14:52;14.8;41.6
76509;SHT31;65340;51.966;5.652;2023-04-03T04:17:22;14.8;41.5
76509;SHT31;65340;51.966;5.652;2023-04-03T04:19:51;14.8;41.5
76509;SHT31;65340;51.966;5.652;2023-04-03T04:22:21;14.8;41.6
76509;SHT31;65340;51.966;5.652;2023-04-03T04:24:52;14.8;41.6
76509;SHT31;65340;51.966;5.652;2023-04-03T04:27:22;14.8;41.5
76509;SHT31;65340;51.966;5.652;2023-04-03T04:29:53;14.8;41.5
76509;SHT31;65340;51.966;5.652;2023-04-03T04:32:24;14.8;41.6
76509;SHT31;65340;51.966;5.652;2023-04-03T04:34:54;14.8;41.7
76509;SHT31;65340;51.966;5.652;2023-04-03T04:37:25;14.8;41.7
76509;SHT31;65340;51.966;5.652;2023-04-03T04:39:55;14.8;41.6
76509;SHT31;65340;51.966;5.652;2023-04-03T04:42:25;14.8;41.6
76509;SHT31;65340;51.966;5.652;2023-04-03T04:44:54;14.8;41.6
76509;SHT31;65340;51.966;5.652;2023-04-03T04:47:24;14.8;41.6
76509;SHT31;65340;51.966;5.652;2023-04-03T04:49:54;14.8;41.6
76509;SHT31;65340;51.966;5.652;2023-04-03T04:52:23;14.8;41.6
76509;SHT31;65340;51.966;5.652;2023-04-03T04:54:54;14.8;41.6
76509;SHT31;65340;51.966;5.652;2023-04-03T04:57:24;14.8;41.6
76509;SHT31;65340;51.966;5.652;2023-04-03T04:59:54;14.7;41.7
76509;SHT31;65340;51.966;5.652;2023-04-03T05:02:23;14.7;41.6
76509;SHT31;65340;51.966;5.652;2023-04-03T05:04:53;14.7;41.5
76509;SHT31;65340;51.966;5.652;2023-04-03T05:07:24;14.7;41.6
76509;SHT31;65340;51.966;5.652;2023-04-03T05:09:54;14.7;41.6
76509;SHT31;65340;51.966;5.652;2023-04-03T05:12:24;14.7;41.6
76509;SHT31;65340;51.966;5.652;2023-04-03T05:14:55;14.7;41.5
76509;SHT31;65340;51.966;5.652;2023-04-03T05:17:25;14.7;41.5
76509;SHT31;65340;51.966;5.652;2023-04-03T05:19:54;14.7;41.6
76509;SHT31;65340;51.966;5.652;2023-04-03T05:22:24;14.7;41.6
76509;SHT31;65340;51.966;5.652;2023-04-03T05:24:54;14.7;41.6
76509;SHT31;65340;51.966;5.652;2023-04-03T05:27:25;14.7;41.6
76509;SHT31;65340;51.966;5.652;2023-04-03T05:29:57;14.7;41.6
76509;SHT31;65340;51.966;5.652;2023-04-03T05:32:27;14.7;41.7
76509;SHT31;65340;51.966;5.652;2023-04-03T05:34:57;14.7;41.5
76509;SHT31;65340;51.966;5.652;2023-04-03T05:37:28;14.7;41.6
76509;SHT31;65340;51.966;5.652;2023-04-03T05:39:58;14.7;41.6
76509;SHT31;65340;51.966;5.652;2023-04-03T05:42:27;14.7;41.6
76509;SHT31;65340;51.966;5.652;2023-04-03T05:44:57;14.7;41.7
76509;SHT31;65340;51.966;5.652;2023-04-03T05:47:27;14.7;41.7
76509;SHT31;65340;51.966;5.652;2023-04-03T05:49:58;14.7;41.7
76509;SHT31;65340;51.966;5.652;2023-04-03T05:52:30;14.7;41.7
76509;SHT31;65340;51.966;5.652;2023-04-03T05:55:00;14.7;41.7
76509;SHT31;65340;51.966;5.652;2023-04-03T05:57:30;14.7;41.7
76509;SHT31;65340;51.966;5.652;2023-04-03T05:59:59;14.7;41.6
76509;SHT31;65340;51.966;5.652;2023-04-03T06:02:29;14.7;41.6
76509;SHT31;65340;51.966;5.652;2023-04-03T06:04:59;14.7;41.6
76509;SHT31;65340;51.966;5.652;2023-04-03T06:07:29;14.7;41.6
76509;SHT31;65340;51.966;5.652;2023-04-03T06:09:59;14.7;41.6
76509;SHT31;65340;51.966;5.652;2023-04-03T06:12:29;14.7;41.6
76509;SHT31;65340;51.966;5.652;2023-04-03T06:14:58;14.7;41.6
76509;SHT31;65340;51.966;5.652;2023-04-03T06:17:28;14.7;41.6
76509;SHT31;65340;51.966;5.652;2023-04-03T06:20:02;14.8;41.5
76509;SHT31;65340;51.966;5.652;2023-04-03T06:22:34;14.8;41.5
76509;SHT31;65340;51.966;5.652;2023-04-03T06:25:05;14.8;41.5
76509;SHT31;65340;51.966;5.652;2023-04-03T06:27:36;14.8;41.5
76509;SHT31;65340;51.966;5.652;2023-04-03T06:30:07;14.8;41.5
76509;SHT31;65340;51.966;5.652;2023-04-03T06:32:38;14.8;41.6
76509;SHT31;65340;51.966;5.652;2023-04-03T06:35:09;14.8;41.6
76509;SHT31;65340;51.966;5.652;2023-04-03T06:37:39;14.9;41.7
76509;SHT31;65340;51.966;5.652;2023-04-03T06:40:15;14.9;41.7
76509;SHT31;65340;51.966;5.652;2023-04-03T06:42:48;14.9;41.7
76509;SHT31;65340;51.966;5.652;2023-04-03T06:45:18;14.9;41.9
76509;SHT31;65340;51.966;5.652;2023-04-03T06:47:49;14.9;42.0
76509;SHT31;65340;51.966;5.652;2023-04-03T06:50:19;15.0;42.0
76509;SHT31;65340;51.966;5.652;2023-04-03T06:52:49;15.0;42.1
76509;SHT31;65340;51.966;5.652;2023-04-03T06:55:19;15.0;42.6
76509;SHT31;65340;51.966;5.652;2023-04-03T06:57:49;15.0;42.3
76509;SHT31;65340;51.966;5.652;2023-04-03T07:00:19;15.1;42.2
76509;SHT31;65340;51.966;5.652;2023-04-03T07:02:49;15.1;42.1
76509;SHT31;65340;51.966;5.652;2023-04-03T07:05:21;15.1;41.9
76509;SHT31;65340;51.966;5.652;2023-04-03T07:07:53;15.1;41.8
76509;SHT31;65340;51.966;5.652;2023-04-03T07:10:23;15.1;41.7
76509;SHT31;65340;51.966;5.652;2023-04-03T07:12:53;15.1;41.6
76509;SHT31;65340;51.966;5.652;2023-04-03T07:15:23;15.2;41.4
76509;SHT31;65340;51.966;5.652;2023-04-03T07:17:52;15.2;41.3
76509;SHT31;65340;51.966;5.652;2023-04-03T07:20:23;15.2;41.3
76509;SHT31;65340;51.966;5.652;2023-04-03T07:22:54;15.2;41.3
76509;SHT31;65340;51.966;5.652;2023-04-03T07:25:23;15.2;41.3
76509;SHT31;65340;51.966;5.652;2023-04-03T07:27:54;15.2;41.2
76509;SHT31;65340;51.966;5.652;2023-04-03T07:30:25;15.2;41.2
76509;SHT31;65340;51.966;5.652;2023-04-03T07:32:55;15.2;41.0
76509;SHT31;65340;51.966;5.652;2023-04-03T07:35:24;15.2;41.0
76509;SHT31;65340;51.966;5.652;2023-04-03T07:37:54;15.2;40.9
76509;SHT31;65340;51.966;5.652;2023-04-03T07:40:25;15.2;40.8
76509;SHT31;65340;51.966;5.652;2023-04-03T07:42:54;15.2;40.9
76509;SHT31;65340;51.966;5.652;2023-04-03T07:45:24;15.2;40.8
76509;SHT31;65340;51.966;5.652;2023-04-03T07:47:57;15.2;40.7
76509;SHT31;65340;51.966;5.652;2023-04-03T07:50:27;15.2;40.7
76509;SHT31;65340;51.966;5.652;2023-04-03T07:53:01;15.2;40.6
76509;SHT31;65340;51.966;5.652;2023-04-03T07:55:31;15.2;40.5
76509;SHT31;65340;51.966;5.652;2023-04-03T07:58:01;15.2;40.5
76509;SHT31;65340;51.966;5.652;2023-04-03T08:00:32;15.2;40.5
76509;SHT31;65340;51.966;5.652;2023-04-03T08:03:02;15.2;40.5
76509;SHT31;65340;51.966;5.652;2023-04-03T08:05:36;15.2;40.3
76509;SHT31;65340;51.966;5.652;2023-04-03T08:08:07;15.2;40.4
76509;SHT31;65340;51.966;5.652;2023-04-03T08:10:38;15.2;40.5
76509;SHT31;65340;51.966;5.652;2023-04-03T08:13:09;15.2;40.3
76509;SHT31;65340;51.966;5.652;2023-04-03T08:15:38;15.2;40.2
76509;SHT31;65340;51.966;5.652;2023-04-03T08:18:10;15.2;40.2
76509;SHT31;65340;51.966;5.652;2023-04-03T08:20:40;15.2;40.1
76509;SHT31;65340;51.966;5.652;2023-04-03T08:23:11;15.2;40.0
76509;SHT31;65340;51.966;5.652;2023-04-03T08:25:43;15.2;39.9
76509;SHT31;65340;51.966;5.652;2023-04-03T08:28:15;15.2;39.8
76509;SHT31;65340;51.966;5.652;2023-04-03T08:30:47;15.2;39.6
76509;SHT31;65340;51.966;5.652;2023-04-03T08:33:18;15.2;39.5
76509;SHT31;65340;51.966;5.652;2023-04-03T08:35:48;15.2;39.5
76509;SHT31;65340;51.966;5.652;2023-04-03T08:38:18;15.2;39.4
76509;SHT31;65340;51.966;5.652;2023-04-03T08:41:01;15.2;39.3
76509;SHT31;65340;51.966;5.652;2023-04-03T08:43:42;15.2;39.0
76509;SHT31;65340;51.966;5.652;2023-04-03T08:46:17;15.2;39.0
76509;SHT31;65340;51.966;5.652;2023-04-03T08:48:50;15.2;38.8
76509;SHT31;65340;51.966;5.652;2023-04-03T08:51:20;15.2;38.7
76509;SHT31;65340;51.966;5.652;2023-04-03T08:53:56;15.2;38.4
76509;SHT31;65340;51.966;5.652;2023-04-03T08:56:29;15.2;38.3
76509;SHT31;65340;51.966;5.652;2023-04-03T08:59:03;15.2;38.0
76509;SHT31;65340;51.966;5.652;2023-04-03T09:01:37;15.2;37.8
76509;SHT31;65340;51.966;5.652;2023-04-03T09:04:13;15.2;37.8
76509;SHT31;65340;51.966;5.652;2023-04-03T09:06:48;15.2;37.7
76509;SHT31;65340;51.966;5.652;2023-04-03T09:09:32;15.2;37.4
76509;SHT31;65340;51.966;5.652;2023-04-03T09:12:15;15.2;37.2
76509;SHT31;65340;51.966;5.652;2023-04-03T09:14:53;15.2;37.0
76509;SHT31;65340;51.966;5.652;2023-04-03T09:17:38;15.2;36.8
76509;SHT31;65340;51.966;5.652;2023-04-03T09:20:19;15.1;36.1
76509;SHT31;65340;51.966;5.652;2023-04-03T09:22:52;15.1;35.9
76509;SHT31;65340;51.966;5.652;2023-04-03T09:25:25;15.1;35.7
76509;SHT31;65340;51.966;5.652;2023-04-03T09:27:56;15.1;35.6
76509;SHT31;65340;51.966;5.652;2023-04-03T09:30:29;15.1;35.5
76509;SHT31;65340;51.966;5.652;2023-04-03T09:32:58;15.1;35.7
76509;SHT31;65340;51.966;5.652;2023-04-03T09:35:31;15.1;35.4
76509;SHT31;65340;51.966;5.652;2023-04-03T09:38:18;15.1;35.1
76509;SHT31;65340;51.966;5.652;2023-04-03T09:41:02;15.1;35.0
76509;SHT31;65340;51.966;5.652;2023-04-03T09:43:37;15.1;34.6
76509;SHT31;65340;51.966;5.652;2023-04-03T09:46:30;15.1;34.3
76509;SHT31;65340;51.966;5.652;2023-04-03T09:49:02;15.0;34.1
76509;SHT31;65340;51.966;5.652;2023-04-03T09:51:32;15.0;34.0
76509;SHT31;65340;51.966;5.652;2023-04-03T09:54:30;15.0;33.8
76509;SHT31;65340;51.966;5.652;2023-04-03T09:57:03;15.0;33.7
76509;SHT31;65340;51.966;5.652;2023-04-03T09:59:44;15.0;33.7
76509;SHT31;65340;51.966;5.652;2023-04-03T10:02:51;15.0;33.6
76509;SHT31;65340;51.966;5.652;2023-04-03T10:05:31;15.0;33.7
76509;SHT31;65340;51.966;5.652;2023-04-03T10:08:18;15.0;33.3
76509;SHT31;65340;51.966;5.652;2023-04-03T10:10:48;15.0;33.1
76509;SHT31;65340;51.966;5.652;2023-04-03T10:13:20;15.0;33.1
76509;SHT31;65340;51.966;5.652;2023-04-03T10:15:55;15.0;33.2
76509;SHT31;65340;51.966;5.652;2023-04-03T10:18:36;15.0;32.7
76509;SHT31;65340;51.966;5.652;2023-04-03T10:21:17;14.9;32.8
76509;SHT31;65340;51.966;5.652;2023-04-03T10:23:54;14.9;32.8
76509;SHT31;65340;51.966;5.652;2023-04-03T10:26:36;15.0;32.7
76509;SHT31;65340;51.966;5.652;2023-04-03T10:29:19;15.0;32.6
76509;SHT31;65340;51.966;5.652;2023-04-03T10:32:01;15.0;32.6
76509;SHT31;65340;51.966;5.652;2023-04-03T10:34:38;15.0;32.5
76509;SHT31;65340;51.966;5.652;2023-04-03T10:37:17;15.0;32.6
76509;SHT31;65340;51.966;5.652;2023-04-03T10:39:55;15.0;32.5
76509;SHT31;65340;51.966;5.652;2023-04-03T10:42:32;15.0;32.4
76509;SHT31;65340;51.966;5.652;2023-04-03T10:45:21;15.0;32.6
76509;SHT31;65340;51.966;5.652;2023-04-03T10:48:04;15.0;32.6
76509;SHT31;65340;51.966;5.652;2023-04-03T10:50:44;15.0;32.8
76509;SHT31;65340;51.966;5.652;2023-04-03T10:53:22;15.0;32.7
76509;SHT31;65340;51.966;5.652;2023-04-03T10:56:05;15.0;32.7
76509;SHT31;65340;51.966;5.652;2023-04-03T10:58:40;15.0;32.8
76509;SHT31;65340;51.966;5.652;2023-04-03T11:01:16;15.0;32.8
76509;SHT31;65340;51.966;5.652;2023-04-03T11:03:52;15.0;32.6
76509;SHT31;65340;51.966;5.652;2023-04-03T11:06:26;15.0;32.7
76509;SHT31;65340;51.966;5.652;2023-04-03T11:09:03;15.0;32.7
76509;SHT31;65340;51.966;5.652;2023-04-03T11:11:39;15.1;32.8
76509;SHT31;65340;51.966;5.652;2023-04-03T11:14:16;15.1;32.9
76509;SHT31;65340;51.966;5.652;2023-04-03T11:16:59;15.1;33.0
76509;SHT31;65340;51.966;5.652;2023-04-03T11:19:35;15.1;32.9
76509;SHT31;65340;51.966;5.652;2023-04-03T11:22:20;15.1;32.7
76509;SHT31;65340;51.966;5.652;2023-04-03T11:24:58;15.1;32.8
76509;SHT31;65340;51.966;5.652;2023-04-03T11:27:38;15.1;32.7
76509;SHT31;65340;51.966;5.652;2023-04-03T11:30:18;15.1;32.7
76509;SHT31;65340;51.966;5.652;2023-04-03T11:33:54;15.1;32.5
76509;SHT31;65340;51.966;5.652;2023-04-03T11:36:29;15.1;32.5
76509;SHT31;65340;51.966;5.652;2023-04-03T11:39:02;15.2;32.6
76509;SHT31;65340;51.966;5.652;2023-04-03T11:41:36;15.2;32.6
76509;SHT31;65340;51.966;5.652;2023-04-03T11:44:28;15.2;32.4
76509;SHT31;65340;51.966;5.652;2023-04-03T11:46:59;15.2;32.5
76509;SHT31;65340;51.966;5.652;2023-04-03T11:49:58;15.2;32.6
76509;SHT31;65340;51.966;5.652;2023-04-03T11:53:00;15.3;32.7
76509;SHT31;65340;51.966;5.652;2023-04-03T11:55:58;15.3;32.7
76509;SHT31;65340;51.966;5.652;2023-04-03T11:58:29;15.3;33.0
76509;SHT31;65340;51.966;5.652;2023-04-03T12:01:07;15.4;32.9
76509;SHT31;65340;51.966;5.652;2023-04-03T12:04:19;15.4;32.9
76509;SHT31;65340;51.966;5.652;2023-04-03T12:06:53;15.4;32.8
76509;SHT31;65340;51.966;5.652;2023-04-03T12:09:31;15.4;32.7
76509;SHT31;65340;51.966;5.652;2023-04-03T12:12:41;15.4;32.7
76509;SHT31;65340;51.966;5.652;2023-04-03T12:15:50;15.4;32.6
76509;SHT31;65340;51.966;5.652;2023-04-03T12:20:57;15.5;32.7
76509;SHT31;65340;51.966;5.652;2023-04-03T12:23:30;15.5;33.0
76509;SHT31;65340;51.966;5.652;2023-04-03T12:26:46;15.6;32.9
76509;SHT31;65340;51.966;5.652;2023-04-03T12:29:22;15.6;33.1
76509;SHT31;65340;51.966;5.652;2023-04-03T12:32:09;15.6;33.2
76509;SHT31;65340;51.966;5.652;2023-04-03T12:34:51;15.7;33.5
76509;SHT31;65340;51.966;5.652;2023-04-03T12:37:38;15.7;33.3
76509;SHT31;65340;51.966;5.652;2023-04-03T12:40:19;15.7;33.4
76509;SHT31;65340;51.966;5.652;2023-04-03T12:43:13;15.8;33.5
76509;SHT31;65340;51.966;5.652;2023-04-03T12:45:51;15.8;33.3
76509;SHT31;65340;51.966;5.652;2023-04-03T12:48:26;15.8;33.5
76509;SHT31;65340;51.966;5.652;2023-04-03T12:50:58;15.9;33.4
76509;SHT31;65340;51.966;5.652;2023-04-03T12:53:32;15.9;33.4
76509;SHT31;65340;51.966;5.652;2023-04-03T12:56:23;15.9;33.6
76509;SHT31;65340;51.966;5.652;2023-04-03T12:58:55;15.9;33.5
76509;SHT31;65340;51.966;5.652;2023-04-03T13:01:26;16.0;33.6
76509;SHT31;65340;51.966;5.652;2023-04-03T13:03:58;16.0;33.7
76509;SHT31;65340;51.966;5.652;2023-04-03T13:06:33;16.1;33.7
76509;SHT31;65340;51.966;5.652;2023-04-03T13:09:14;16.1;33.7
76509;SHT31;65340;51.966;5.652;2023-04-03T13:11:51;16.1;33.8
76509;SHT31;65340;51.966;5.652;2023-04-03T13:14:24;16.1;33.7
76509;SHT31;65340;51.966;5.652;2023-04-03T13:16:58;16.2;33.6
76509;SHT31;65340;51.966;5.652;2023-04-03T13:19:31;16.2;33.7
76509;SHT31;65340;51.966;5.652;2023-04-03T13:22:03;16.2;33.5
76509;SHT31;65340;51.966;5.652;2023-04-03T13:24:37;16.2;33.5
76509;SHT31;65340;51.966;5.652;2023-04-03T13:27:11;16.3;33.6
76509;SHT31;65340;51.966;5.652;2023-04-03T13:29:43;16.3;33.5
76509;SHT31;65340;51.966;5.652;2023-04-03T13:32:19;16.3;33.1
76509;SHT31;65340;51.966;5.652;2023-04-03T13:34:50;16.4;33.5
76509;SHT31;65340;51.966;5.652;2023-04-03T13:37:22;16.4;33.4
76509;SHT31;65340;51.966;5.652;2023-04-03T13:40:01;16.4;33.6
76509;SHT31;65340;51.966;5.652;2023-04-03T13:42:33;16.4;33.4
76509;SHT31;65340;51.966;5.652;2023-04-03T13:46:05;16.4;33.4
76509;SHT31;65340;51.966;5.652;2023-04-03T13:48:43;16.5;33.5
76509;SHT31;65340;51.966;5.652;2023-04-03T13:51:22;16.5;33.5
76509;SHT31;65340;51.966;5.652;2023-04-03T13:53:56;16.5;33.3
76509;SHT31;65340;51.966;5.652;2023-04-03T13:56:32;16.5;33.3
76509;SHT31;65340;51.966;5.652;2023-04-03T13:59:23;16.5;33.3
76509;SHT31;65340;51.966;5.652;2023-04-03T14:02:05;16.5;33.3
76509;SHT31;65340;51.966;5.652;2023-04-03T14:04:31;16.6;33.3
76509;SHT31;65340;51.966;5.652;2023-04-03T14:07:02;16.6;33.3
76509;SHT31;65340;51.966;5.652;2023-04-03T14:09:33;16.6;33.4
76509;SHT31;65340;51.966;5.652;2023-04-03T14:12:07;16.6;33.2
76509;SHT31;65340;51.966;5.652;2023-04-03T14:14:37;16.6;33.2
76509;SHT31;65340;51.966;5.652;2023-04-03T14:17:16;16.6;33.2
76509;SHT31;65340;51.966;5.652;2023-04-03T14:19:47;16.7;33.2
76509;SHT31;65340;51.966;5.652;2023-04-03T14:22:20;16.7;32.9
76509;SHT31;65340;51.966;5.652;2023-04-03T14:24:51;16.7;33.1
76509;SHT31;65340;51.966;5.652;2023-04-03T14:27:24;16.7;33.1
76509;SHT31;65340;51.966;5.652;2023-04-03T14:29:57;16.7;33.2
76509;SHT31;65340;51.966;5.652;2023-04-03T14:32:30;16.7;33.2
76509;SHT31;65340;51.966;5.652;2023-04-03T14:35:00;16.8;33.1
76509;SHT31;65340;51.966;5.652;2023-04-03T14:37:31;16.8;33.2
76509;SHT31;65340;51.966;5.652;2023-04-03T14:40:03;16.8;33.2
76509;SHT31;65340;51.966;5.652;2023-04-03T14:42:36;16.8;33.2
76509;SHT31;65340;51.966;5.652;2023-04-03T14:45:09;16.8;33.5
76509;SHT31;65340;51.966;5.652;2023-04-03T14:47:42;16.8;33.1
76509;SHT31;65340;51.966;5.652;2023-04-03T14:50:18;16.8;32.9
76509;SHT31;65340;51.966;5.652;2023-04-03T14:52:50;16.8;33.4
76509;SHT31;65340;51.966;5.652;2023-04-03T14:55:23;16.8;33.2
76509;SHT31;65340;51.966;5.652;2023-04-03T14:57:53;16.8;32.8
76509;SHT31;65340;51.966;5.652;2023-04-03T15:00:23;16.8;33.3
76509;SHT31;65340;51.966;5.652;2023-04-03T15:02:54;16.8;32.9
76509;SHT31;65340;51.966;5.652;2023-04-03T15:05:23;16.8;32.9
76509;SHT31;65340;51.966;5.652;2023-04-03T15:07:55;16.8;33.2
76509;SHT31;65340;51.966;5.652;2023-04-03T15:10:29;16.8;33.1
76509;SHT31;65340;51.966;5.652;2023-04-03T15:12:59;16.8;33.0
76509;SHT31;65340;51.966;5.652;2023-04-03T15:15:32;16.8;32.9
76509;SHT31;65340;51.966;5.652;2023-04-03T15:18:03;16.8;32.6
76509;SHT31;65340;51.966;5.652;2023-04-03T15:20:33;16.8;33.2
76509;SHT31;65340;51.966;5.652;2023-04-03T15:23:03;16.8;32.9
76509;SHT31;65340;51.966;5.652;2023-04-03T15:25:33;16.8;32.8
76509;SHT31;65340;51.966;5.652;2023-04-03T15:28:03;16.8;32.8
76509;SHT31;65340;51.966;5.652;2023-04-03T15:30:38;16.8;33.1
76509;SHT31;65340;51.966;5.652;2023-04-03T15:33:10;16.8;32.5
76509;SHT31;65340;51.966;5.652;2023-04-03T15:35:39;16.8;33.0
76509;SHT31;65340;51.966;5.652;2023-04-03T15:38:11;16.8;32.6
76509;SHT31;65340;51.966;5.652;2023-04-03T15:40:40;16.8;33.0
76509;SHT31;65340;51.966;5.652;2023-04-03T15:43:11;16.8;32.7
76509;SHT31;65340;51.966;5.652;2023-04-03T15:45:41;16.8;32.7
76509;SHT31;65340;51.966;5.652;2023-04-03T15:48:12;16.8;32.8
76509;SHT31;65340;51.966;5.652;2023-04-03T15:50:44;16.8;32.7
76509;SHT31;65340;51.966;5.652;2023-04-03T15:53:14;16.8;32.7
76509;SHT31;65340;51.966;5.652;2023-04-03T15:55:43;16.8;32.6
76509;SHT31;65340;51.966;5.652;2023-04-03T15:58:13;16.8;32.7
76509;SHT31;65340;51.966;5.652;2023-04-03T16:00:45;16.8;32.6
76509;SHT31;65340;51.966;5.652;2023-04-03T16:03:19;16.8;32.5
76509;SHT31;65340;51.966;5.652;2023-04-03T16:05:49;16.8;32.3
76509;SHT31;65340;51.966;5.652;2023-04-03T16:08:20;16.8;32.6
76509;SHT31;65340;51.966;5.652;2023-04-03T16:10:51;16.8;32.4
76509;SHT31;65340;51.966;5.652;2023-04-03T16:13:21;16.8;32.5
76509;SHT31;65340;51.966;5.652;2023-04-03T16:15:51;16.8;32.4
76509;SHT31;65340;51.966;5.652;2023-04-03T16:18:21;16.8;32.3
76509;SHT31;65340;51.966;5.652;2023-04-03T16:20:54;16.7;32.2
76509;SHT31;65340;51.966;5.652;2023-04-03T16:23:24;16.7;32.5
76509;SHT31;65340;51.966;5.652;2023-04-03T16:25:53;16.7;32.2
76509;SHT31;65340;51.966;5.652;2023-04-03T16:28:23;16.7;32.4
76509;SHT31;65340;51.966;5.652;2023-04-03T16:30:53;16.7;32.5
76509;SHT31;65340;51.966;5.652;2023-04-03T16:33:24;16.7;32.2
76509;SHT31;65340;51.966;5.652;2023-04-03T16:35:57;16.7;32.3
76509;SHT31;65340;51.966;5.652;2023-04-03T16:38:26;16.7;32.2
76509;SHT31;65340;51.966;5.652;2023-04-03T16:40:56;16.7;32.4
76509;SHT31;65340;51.966;5.652;2023-04-03T16:43:26;16.7;32.4
76509;SHT31;65340;51.966;5.652;2023-04-03T16:45:57;16.7;32.3
76509;SHT31;65340;51.966;5.652;2023-04-03T16:48:30;16.7;32.1
76509;SHT31;65340;51.966;5.652;2023-04-03T16:51:01;16.6;32.0